KBIL/BIL METAR and TAF weather

Enter ICAO airport designator
Station Type Date Time Source
KBIL METAR 2021/03/05 12:53 UTC NOAA

KBIL 051253Z 22015KT 10SM FEW200 00/M06 A3023 RMK AO2 SLP251 T00001056 $


Station Type Date Time Source
KBIL Decoded METAR 2021/03/05 12:53 UTC NOAA

LOGAN INTERNATIONAL AIRPORT, MT, United States (KBIL) 45-49N 108-33W 1091M
Mar 05, 2021 - 07:53 AM EST / 2021.03.05 1253 UTC
Wind: from the SW (220 degrees) at 17 MPH (15 KT):0
Visibility: 10 mile(s):0
Sky conditions: mostly clear
Temperature: 32.0 F (0.0 C)
Windchill: 21 F (-6 C):1
Dew Point: 21.9 F (-5.6 C)
Relative Humidity: 65%
Pressure (altimeter): 30.23 in. Hg (1023 hPa)
ob: KBIL 051253Z 22015KT 10SM FEW200 00/M06 A3023 RMK AO2 SLP251 T00001056
cycle: 13

Station Type Date Time Source
KBIL TAF 2021/03/05 06:22 UTC NOAA

TAF KBIL 050520Z 0506/0606 22010KT P6SM SCT250

Example: see airport list